Terminal Aerodrome Forecast
Issued by NWS Wilmington, OH

Home | Current Version | Previous Version | Text Only | Print | Product List | Glossary On
Versions: 1 2 3 4 5 6 7 8 9 10 11 12 13 14 15 16 17 18 19 20 21 22 23 24
000
FTUS41 KILN 051441 AAB
TAFDAY
TAF AMD
KDAY 051441Z 0515/0612 34008KT P6SM OVC015
      TEMPO 0515/0517 5SM -SHRA OVC008
     FM051800 01015G24KT P6SM VCSH BKN045
     FM060100 34008KT P6SM SCT045=

USA.gov is the U.S. government's official web portal to all federal, state and local government web resources and services.